sensor_id;sensor_type;location;lat;lon;timestamp;temperature;humidity
17152;DHT22;8691;50.828;4.700;2023-02-16T00:02:07;5.20;99.90
17152;DHT22;8691;50.828;4.700;2023-02-16T00:04:33;5.20;99.90
17152;DHT22;8691;50.828;4.700;2023-02-16T00:06:59;5.20;99.90
17152;DHT22;8691;50.828;4.700;2023-02-16T00:09:27;5.10;99.90
17152;DHT22;8691;50.828;4.700;2023-02-16T00:11:53;5.10;99.90
17152;DHT22;8691;50.828;4.700;2023-02-16T00:14:38;5.10;99.90
17152;DHT22;8691;50.828;4.700;2023-02-16T00:17:05;5.00;99.90
17152;DHT22;8691;50.828;4.700;2023-02-16T00:19:36;5.00;99.90
17152;DHT22;8691;50.828;4.700;2023-02-16T00:22:02;5.00;99.90
17152;DHT22;8691;50.828;4.700;2023-02-16T00:24:29;5.10;99.90
17152;DHT22;8691;50.828;4.700;2023-02-16T00:26:56;5.10;99.90
17152;DHT22;8691;50.828;4.700;2023-02-16T00:29:33;5.10;99.90
17152;DHT22;8691;50.828;4.700;2023-02-16T00:31:59;5.10;99.90
17152;DHT22;8691;50.828;4.700;2023-02-16T00:34:32;5.00;99.90
17152;DHT22;8691;50.828;4.700;2023-02-16T00:36:59;5.00;99.90
17152;DHT22;8691;50.828;4.700;2023-02-16T00:39:25;5.00;99.90
17152;DHT22;8691;50.828;4.700;2023-02-16T00:41:55;4.90;99.90
17152;DHT22;8691;50.828;4.700;2023-02-16T00:44:24;4.90;99.90
17152;DHT22;8691;50.828;4.700;2023-02-16T00:46:47;4.90;99.90
17152;DHT22;8691;50.828;4.700;2023-02-16T00:49:14;4.90;99.90
17152;DHT22;8691;50.828;4.700;2023-02-16T00:51:40;4.90;99.90
17152;DHT22;8691;50.828;4.700;2023-02-16T00:54:08;4.80;99.90
17152;DHT22;8691;50.828;4.700;2023-02-16T00:56:34;4.80;99.90
17152;DHT22;8691;50.828;4.700;2023-02-16T00:59:01;4.80;99.90
17152;DHT22;8691;50.828;4.700;2023-02-16T01:01:29;4.80;99.90
17152;DHT22;8691;50.828;4.700;2023-02-16T01:03:55;4.90;99.90
17152;DHT22;8691;50.828;4.700;2023-02-16T01:06:21;4.80;99.90
17152;DHT22;8691;50.828;4.700;2023-02-16T01:09:13;4.80;99.90
17152;DHT22;8691;50.828;4.700;2023-02-16T01:11:56;4.80;99.90
17152;DHT22;8691;50.828;4.700;2023-02-16T01:14:23;4.80;99.90
17152;DHT22;8691;50.828;4.700;2023-02-16T01:16:50;4.80;99.90
17152;DHT22;8691;50.828;4.700;2023-02-16T01:19:17;4.80;99.90
17152;DHT22;8691;50.828;4.700;2023-02-16T01:21:43;4.80;99.90
17152;DHT22;8691;50.828;4.700;2023-02-16T01:24:10;4.70;99.90
17152;DHT22;8691;50.828;4.700;2023-02-16T01:26:38;4.70;99.90
17152;DHT22;8691;50.828;4.700;2023-02-16T01:29:04;4.70;99.90
17152;DHT22;8691;50.828;4.700;2023-02-16T01:31:30;4.70;99.90
17152;DHT22;8691;50.828;4.700;2023-02-16T01:33:57;4.70;99.90
17152;DHT22;8691;50.828;4.700;2023-02-16T01:36:33;4.70;99.90
17152;DHT22;8691;50.828;4.700;2023-02-16T01:38:59;4.60;99.90
17152;DHT22;8691;50.828;4.700;2023-02-16T01:44:43;4.60;99.90
17152;DHT22;8691;50.828;4.700;2023-02-16T01:47:35;4.60;99.90
17152;DHT22;8691;50.828;4.700;2023-02-16T01:50:06;4.60;99.90
17152;DHT22;8691;50.828;4.700;2023-02-16T01:52:31;4.60;99.90
17152;DHT22;8691;50.828;4.700;2023-02-16T01:57:48;4.70;99.90
17152;DHT22;8691;50.828;4.700;2023-02-16T02:00:20;4.70;99.90
17152;DHT22;8691;50.828;4.700;2023-02-16T02:02:48;4.70;99.90
17152;DHT22;8691;50.828;4.700;2023-02-16T02:05:18;4.70;99.90
17152;DHT22;8691;50.828;4.700;2023-02-16T02:08:26;4.60;99.90
17152;DHT22;8691;50.828;4.700;2023-02-16T02:10:59;4.60;99.90
17152;DHT22;8691;50.828;4.700;2023-02-16T02:16:05;4.50;99.90
17152;DHT22;8691;50.828;4.700;2023-02-16T02:18:32;4.40;99.90
17152;DHT22;8691;50.828;4.700;2023-02-16T02:37:49;4.60;99.90
17152;DHT22;8691;50.828;4.700;2023-02-16T02:40:20;4.60;99.90
17152;DHT22;8691;50.828;4.700;2023-02-16T02:42:56;4.70;99.90
17152;DHT22;8691;50.828;4.700;2023-02-16T02:45:22;4.70;99.90
17152;DHT22;8691;50.828;4.700;2023-02-16T02:47:48;4.70;99.90
17152;DHT22;8691;50.828;4.700;2023-02-16T02:50:36;4.70;99.90
17152;DHT22;8691;50.828;4.700;2023-02-16T02:53:02;4.80;99.90
17152;DHT22;8691;50.828;4.700;2023-02-16T02:55:28;4.80;99.90
17152;DHT22;8691;50.828;4.700;2023-02-16T02:58:13;4.80;99.90
17152;DHT22;8691;50.828;4.700;2023-02-16T03:00:58;4.90;99.90
17152;DHT22;8691;50.828;4.700;2023-02-16T03:03:31;4.90;99.90
17152;DHT22;8691;50.828;4.700;2023-02-16T03:06:09;4.90;99.90
17152;DHT22;8691;50.828;4.700;2023-02-16T03:08:37;5.00;99.90
17152;DHT22;8691;50.828;4.700;2023-02-16T03:11:16;5.00;99.90
17152;DHT22;8691;50.828;4.700;2023-02-16T03:14:06;5.00;99.90
17152;DHT22;8691;50.828;4.700;2023-02-16T03:16:40;5.10;99.90
17152;DHT22;8691;50.828;4.700;2023-02-16T03:19:06;5.00;99.90
17152;DHT22;8691;50.828;4.700;2023-02-16T03:21:49;5.10;99.90
17152;DHT22;8691;50.828;4.700;2023-02-16T03:24:34;5.00;99.90
17152;DHT22;8691;50.828;4.700;2023-02-16T03:27:23;5.00;99.90
17152;DHT22;8691;50.828;4.700;2023-02-16T03:30:04;5.00;99.90
17152;DHT22;8691;50.828;4.700;2023-02-16T03:32:31;4.90;99.90
17152;DHT22;8691;50.828;4.700;2023-02-16T03:34:57;4.80;99.90
17152;DHT22;8691;50.828;4.700;2023-02-16T03:37:24;4.80;99.90
17152;DHT22;8691;50.828;4.700;2023-02-16T03:39:50;4.70;99.90
17152;DHT22;8691;50.828;4.700;2023-02-16T03:42:35;4.60;99.90
17152;DHT22;8691;50.828;4.700;2023-02-16T03:45:02;4.60;99.90
17152;DHT22;8691;50.828;4.700;2023-02-16T03:47:29;4.70;99.90
17152;DHT22;8691;50.828;4.700;2023-02-16T03:49:56;4.80;99.90
17152;DHT22;8691;50.828;4.700;2023-02-16T03:52:23;4.90;99.90
17152;DHT22;8691;50.828;4.700;2023-02-16T03:54:50;5.00;99.90
17152;DHT22;8691;50.828;4.700;2023-02-16T03:57:17;5.00;99.90
17152;DHT22;8691;50.828;4.700;2023-02-16T03:59:44;5.10;99.90
17152;DHT22;8691;50.828;4.700;2023-02-16T04:02:11;5.10;99.90
17152;DHT22;8691;50.828;4.700;2023-02-16T04:04:38;5.10;99.90
17152;DHT22;8691;50.828;4.700;2023-02-16T04:07:05;5.00;99.90
17152;DHT22;8691;50.828;4.700;2023-02-16T04:09:32;5.00;99.90
17152;DHT22;8691;50.828;4.700;2023-02-16T04:11:59;5.00;99.90
17152;DHT22;8691;50.828;4.700;2023-02-16T04:14:45;5.00;99.90
17152;DHT22;8691;50.828;4.700;2023-02-16T04:17:11;5.00;99.90
17152;DHT22;8691;50.828;4.700;2023-02-16T04:19:38;5.10;99.90
17152;DHT22;8691;50.828;4.700;2023-02-16T04:22:04;5.10;99.90
17152;DHT22;8691;50.828;4.700;2023-02-16T04:24:31;5.20;99.90
17152;DHT22;8691;50.828;4.700;2023-02-16T04:26:58;5.20;99.90
17152;DHT22;8691;50.828;4.700;2023-02-16T04:29:24;5.20;99.90
17152;DHT22;8691;50.828;4.700;2023-02-16T04:31:51;5.20;99.90
17152;DHT22;8691;50.828;4.700;2023-02-16T04:34:17;5.30;99.90
17152;DHT22;8691;50.828;4.700;2023-02-16T04:36:44;5.40;99.90
17152;DHT22;8691;50.828;4.700;2023-02-16T04:39:11;5.60;99.90
17152;DHT22;8691;50.828;4.700;2023-02-16T04:41:38;5.60;99.90
17152;DHT22;8691;50.828;4.700;2023-02-16T04:44:05;5.80;99.90
17152;DHT22;8691;50.828;4.700;2023-02-16T04:46:32;5.80;99.90
17152;DHT22;8691;50.828;4.700;2023-02-16T04:48:59;5.80;99.90
17152;DHT22;8691;50.828;4.700;2023-02-16T04:51:26;5.80;99.90
17152;DHT22;8691;50.828;4.700;2023-02-16T04:53:53;5.90;99.90
17152;DHT22;8691;50.828;4.700;2023-02-16T04:56:20;5.90;99.90
17152;DHT22;8691;50.828;4.700;2023-02-16T04:58:47;5.90;99.90
17152;DHT22;8691;50.828;4.700;2023-02-16T05:01:20;5.90;99.90
17152;DHT22;8691;50.828;4.700;2023-02-16T05:03:46;5.90;99.90
17152;DHT22;8691;50.828;4.700;2023-02-16T05:06:13;5.90;99.90
17152;DHT22;8691;50.828;4.700;2023-02-16T05:08:39;5.90;99.90
17152;DHT22;8691;50.828;4.700;2023-02-16T05:11:07;5.90;99.90
17152;DHT22;8691;50.828;4.700;2023-02-16T05:13:52;5.90;99.90
17152;DHT22;8691;50.828;4.700;2023-02-16T05:16:36;5.90;99.90
17152;DHT22;8691;50.828;4.700;2023-02-16T05:19:03;5.90;99.90
17152;DHT22;8691;50.828;4.700;2023-02-16T05:21:29;5.90;99.90
17152;DHT22;8691;50.828;4.700;2023-02-16T05:24:07;5.90;99.90
17152;DHT22;8691;50.828;4.700;2023-02-16T05:26:30;5.90;99.90
17152;DHT22;8691;50.828;4.700;2023-02-16T05:28:56;5.90;99.90
17152;DHT22;8691;50.828;4.700;2023-02-16T05:31:23;6.00;99.90
17152;DHT22;8691;50.828;4.700;2023-02-16T05:33:50;6.00;99.90
17152;DHT22;8691;50.828;4.700;2023-02-16T05:36:16;6.00;99.90
17152;DHT22;8691;50.828;4.700;2023-02-16T05:38:43;6.00;99.90
17152;DHT22;8691;50.828;4.700;2023-02-16T05:41:09;6.00;99.90
17152;DHT22;8691;50.828;4.700;2023-02-16T05:43:36;6.00;99.90
17152;DHT22;8691;50.828;4.700;2023-02-16T05:46:08;6.00;99.90
17152;DHT22;8691;50.828;4.700;2023-02-16T05:48:35;6.00;99.90
17152;DHT22;8691;50.828;4.700;2023-02-16T05:51:02;6.10;99.90
17152;DHT22;8691;50.828;4.700;2023-02-16T05:53:28;6.00;99.90
17152;DHT22;8691;50.828;4.700;2023-02-16T05:55:55;6.10;99.90
17152;DHT22;8691;50.828;4.700;2023-02-16T05:58:21;6.00;99.90
17152;DHT22;8691;50.828;4.700;2023-02-16T06:00:48;6.00;99.90
17152;DHT22;8691;50.828;4.700;2023-02-16T06:03:15;6.00;99.90
17152;DHT22;8691;50.828;4.700;2023-02-16T06:05:41;6.00;99.90
17152;DHT22;8691;50.828;4.700;2023-02-16T06:08:09;6.00;99.90
17152;DHT22;8691;50.828;4.700;2023-02-16T06:10:35;6.00;99.90
17152;DHT22;8691;50.828;4.700;2023-02-16T06:13:03;6.00;99.90
17152;DHT22;8691;50.828;4.700;2023-02-16T06:15:29;6.00;99.90
17152;DHT22;8691;50.828;4.700;2023-02-16T06:17:57;6.00;99.90
17152;DHT22;8691;50.828;4.700;2023-02-16T06:20:23;6.00;99.90
17152;DHT22;8691;50.828;4.700;2023-02-16T06:22:51;6.00;99.90
17152;DHT22;8691;50.828;4.700;2023-02-16T06:25:17;6.00;99.90
17152;DHT22;8691;50.828;4.700;2023-02-16T06:27:45;6.00;99.90
17152;DHT22;8691;50.828;4.700;2023-02-16T06:30:11;6.00;99.90
17152;DHT22;8691;50.828;4.700;2023-02-16T06:32:38;6.00;99.90
17152;DHT22;8691;50.828;4.700;2023-02-16T06:35:05;6.10;99.90
17152;DHT22;8691;50.828;4.700;2023-02-16T06:37:31;6.10;99.90
17152;DHT22;8691;50.828;4.700;2023-02-16T06:39:58;6.10;99.90
17152;DHT22;8691;50.828;4.700;2023-02-16T06:42:25;6.20;99.90
17152;DHT22;8691;50.828;4.700;2023-02-16T06:44:52;6.20;99.90
17152;DHT22;8691;50.828;4.700;2023-02-16T06:47:18;6.10;99.90
17152;DHT22;8691;50.828;4.700;2023-02-16T06:49:45;6.20;99.90
17152;DHT22;8691;50.828;4.700;2023-02-16T06:52:12;6.20;99.90
17152;DHT22;8691;50.828;4.700;2023-02-16T06:54:38;6.30;99.90
17152;DHT22;8691;50.828;4.700;2023-02-16T06:57:05;6.30;99.90
17152;DHT22;8691;50.828;4.700;2023-02-16T06:59:31;6.20;99.90
17152;DHT22;8691;50.828;4.700;2023-02-16T07:01:58;6.30;99.90
17152;DHT22;8691;50.828;4.700;2023-02-16T07:04:25;6.30;99.90
17152;DHT22;8691;50.828;4.700;2023-02-16T07:06:52;6.40;99.90
17152;DHT22;8691;50.828;4.700;2023-02-16T07:09:19;6.40;99.90
17152;DHT22;8691;50.828;4.700;2023-02-16T07:11:46;6.50;99.90
17152;DHT22;8691;50.828;4.700;2023-02-16T07:14:12;6.60;99.90
17152;DHT22;8691;50.828;4.700;2023-02-16T07:16:39;6.70;99.90
17152;DHT22;8691;50.828;4.700;2023-02-16T07:19:06;6.80;99.90
17152;DHT22;8691;50.828;4.700;2023-02-16T07:21:34;6.90;99.90
17152;DHT22;8691;50.828;4.700;2023-02-16T07:24:00;6.90;99.90
17152;DHT22;8691;50.828;4.700;2023-02-16T07:26:28;6.80;99.90
17152;DHT22;8691;50.828;4.700;2023-02-16T07:28:54;6.80;99.90
17152;DHT22;8691;50.828;4.700;2023-02-16T07:31:22;6.90;99.90
17152;DHT22;8691;50.828;4.700;2023-02-16T07:33:50;6.90;99.90
17152;DHT22;8691;50.828;4.700;2023-02-16T07:36:16;6.80;99.90
17152;DHT22;8691;50.828;4.700;2023-02-16T07:38:44;6.90;99.90
17152;DHT22;8691;50.828;4.700;2023-02-16T07:41:10;6.90;99.90
17152;DHT22;8691;50.828;4.700;2023-02-16T07:43:38;6.90;99.90
17152;DHT22;8691;50.828;4.700;2023-02-16T07:46:04;6.90;99.90
17152;DHT22;8691;50.828;4.700;2023-02-16T07:48:31;7.00;99.90
17152;DHT22;8691;50.828;4.700;2023-02-16T07:50:59;7.00;99.90
17152;DHT22;8691;50.828;4.700;2023-02-16T07:53:26;7.00;99.90
17152;DHT22;8691;50.828;4.700;2023-02-16T07:55:52;7.10;99.90
17152;DHT22;8691;50.828;4.700;2023-02-16T07:58:19;7.10;99.90
17152;DHT22;8691;50.828;4.700;2023-02-16T08:01:08;7.10;99.90
17152;DHT22;8691;50.828;4.700;2023-02-16T08:03:33;7.10;99.90
17152;DHT22;8691;50.828;4.700;2023-02-16T08:06:00;7.10;99.90
17152;DHT22;8691;50.828;4.700;2023-02-16T08:08:26;7.20;99.90
17152;DHT22;8691;50.828;4.700;2023-02-16T08:10:53;7.20;99.90
17152;DHT22;8691;50.828;4.700;2023-02-16T08:13:20;7.30;99.90
17152;DHT22;8691;50.828;4.700;2023-02-16T08:15:46;7.40;99.90
17152;DHT22;8691;50.828;4.700;2023-02-16T08:18:13;7.40;99.90
17152;DHT22;8691;50.828;4.700;2023-02-16T08:20:40;7.40;99.90
17152;DHT22;8691;50.828;4.700;2023-02-16T08:23:07;7.50;99.90
17152;DHT22;8691;50.828;4.700;2023-02-16T08:25:33;7.50;99.90
17152;DHT22;8691;50.828;4.700;2023-02-16T08:28:01;7.60;99.90
17152;DHT22;8691;50.828;4.700;2023-02-16T08:30:27;7.60;99.90
17152;DHT22;8691;50.828;4.700;2023-02-16T08:32:55;7.70;99.90
17152;DHT22;8691;50.828;4.700;2023-02-16T08:35:21;7.60;99.90
17152;DHT22;8691;50.828;4.700;2023-02-16T08:37:49;7.70;99.90
17152;DHT22;8691;50.828;4.700;2023-02-16T08:40:15;7.70;99.90
17152;DHT22;8691;50.828;4.700;2023-02-16T08:42:42;7.60;99.90
17152;DHT22;8691;50.828;4.700;2023-02-16T08:45:09;7.70;99.90
17152;DHT22;8691;50.828;4.700;2023-02-16T08:47:36;7.70;99.90
17152;DHT22;8691;50.828;4.700;2023-02-16T08:50:03;7.70;99.90
17152;DHT22;8691;50.828;4.700;2023-02-16T08:52:29;7.70;99.90
17152;DHT22;8691;50.828;4.700;2023-02-16T08:54:56;7.70;99.90
17152;DHT22;8691;50.828;4.700;2023-02-16T08:57:22;7.80;99.90
17152;DHT22;8691;50.828;4.700;2023-02-16T08:59:50;8.10;99.90
17152;DHT22;8691;50.828;4.700;2023-02-16T09:02:16;8.00;99.90
17152;DHT22;8691;50.828;4.700;2023-02-16T09:04:44;8.20;99.90
17152;DHT22;8691;50.828;4.700;2023-02-16T09:07:10;8.20;99.90
17152;DHT22;8691;50.828;4.700;2023-02-16T09:09:38;8.30;99.90
17152;DHT22;8691;50.828;4.700;2023-02-16T09:12:04;8.30;99.90
17152;DHT22;8691;50.828;4.700;2023-02-16T09:14:31;8.30;99.90
17152;DHT22;8691;50.828;4.700;2023-02-16T09:16:58;8.30;99.90
17152;DHT22;8691;50.828;4.700;2023-02-16T09:19:25;8.30;99.90
17152;DHT22;8691;50.828;4.700;2023-02-16T09:21:52;8.30;99.90
17152;DHT22;8691;50.828;4.700;2023-02-16T09:24:18;8.30;99.90
17152;DHT22;8691;50.828;4.700;2023-02-16T09:26:46;8.40;99.90
17152;DHT22;8691;50.828;4.700;2023-02-16T09:29:12;8.40;99.90
17152;DHT22;8691;50.828;4.700;2023-02-16T09:31:39;8.50;99.90
17152;DHT22;8691;50.828;4.700;2023-02-16T09:34:08;8.60;99.90
17152;DHT22;8691;50.828;4.700;2023-02-16T09:36:33;8.60;99.90
17152;DHT22;8691;50.828;4.700;2023-02-16T09:38:59;8.70;99.90
17152;DHT22;8691;50.828;4.700;2023-02-16T09:41:31;8.70;99.90
17152;DHT22;8691;50.828;4.700;2023-02-16T09:43:57;8.70;99.90
17152;DHT22;8691;50.828;4.700;2023-02-16T09:46:23;8.80;99.90
17152;DHT22;8691;50.828;4.700;2023-02-16T09:48:50;8.80;99.90
17152;DHT22;8691;50.828;4.700;2023-02-16T09:51:31;8.80;99.90
17152;DHT22;8691;50.828;4.700;2023-02-16T09:54:01;8.80;99.90
17152;DHT22;8691;50.828;4.700;2023-02-16T09:56:35;8.90;99.90
17152;DHT22;8691;50.828;4.700;2023-02-16T09:59:08;8.80;99.90
17152;DHT22;8691;50.828;4.700;2023-02-16T10:01:38;8.80;99.90
17152;DHT22;8691;50.828;4.700;2023-02-16T10:04:25;8.70;99.90
17152;DHT22;8691;50.828;4.700;2023-02-16T10:06:55;8.80;99.90
17152;DHT22;8691;50.828;4.700;2023-02-16T10:09:18;8.80;99.90
17152;DHT22;8691;50.828;4.700;2023-02-16T10:19:42;9.30;99.90
17152;DHT22;8691;50.828;4.700;2023-02-16T10:22:07;9.30;99.90
17152;DHT22;8691;50.828;4.700;2023-02-16T10:24:38;9.40;99.90
17152;DHT22;8691;50.828;4.700;2023-02-16T10:27:02;9.40;99.90
17152;DHT22;8691;50.828;4.700;2023-02-16T10:29:26;9.50;99.90
17152;DHT22;8691;50.828;4.700;2023-02-16T10:34:51;9.60;99.90
17152;DHT22;8691;50.828;4.700;2023-02-16T10:40:19;9.70;99.90
17152;DHT22;8691;50.828;4.700;2023-02-16T10:43:04;9.90;99.90
17152;DHT22;8691;50.828;4.700;2023-02-16T10:45:42;10.00;99.90
17152;DHT22;8691;50.828;4.700;2023-02-16T10:48:07;10.20;99.90
17152;DHT22;8691;50.828;4.700;2023-02-16T10:50:41;10.40;99.90
17152;DHT22;8691;50.828;4.700;2023-02-16T10:53:20;10.70;99.90
17152;DHT22;8691;50.828;4.700;2023-02-16T10:55:42;10.80;99.90
17152;DHT22;8691;50.828;4.700;2023-02-16T10:58:16;10.80;99.90
17152;DHT22;8691;50.828;4.700;2023-02-16T11:00:49;11.00;99.90
17152;DHT22;8691;50.828;4.700;2023-02-16T11:03:13;11.00;99.90
17152;DHT22;8691;50.828;4.700;2023-02-16T11:05:40;11.10;99.90
17152;DHT22;8691;50.828;4.700;2023-02-16T11:08:08;11.20;99.90
17152;DHT22;8691;50.828;4.700;2023-02-16T11:10:38;11.30;99.90
17152;DHT22;8691;50.828;4.700;2023-02-16T11:13:03;11.40;99.90
17152;DHT22;8691;50.828;4.700;2023-02-16T11:15:30;11.60;99.90
17152;DHT22;8691;50.828;4.700;2023-02-16T11:18:04;11.50;99.90
17152;DHT22;8691;50.828;4.700;2023-02-16T11:23:26;11.50;99.90
17152;DHT22;8691;50.828;4.700;2023-02-16T11:28:29;11.70;99.90
17152;DHT22;8691;50.828;4.700;2023-02-16T11:30:58;11.70;99.90
17152;DHT22;8691;50.828;4.700;2023-02-16T11:33:25;11.70;99.90
17152;DHT22;8691;50.828;4.700;2023-02-16T11:35:51;11.90;99.90
17152;DHT22;8691;50.828;4.700;2023-02-16T11:38:34;12.20;99.90
17152;DHT22;8691;50.828;4.700;2023-02-16T11:41:04;12.90;99.90
17152;DHT22;8691;50.828;4.700;2023-02-16T11:43:31;13.10;99.90
17152;DHT22;8691;50.828;4.700;2023-02-16T11:46:01;13.10;99.90
17152;DHT22;8691;50.828;4.700;2023-02-16T11:48:25;13.20;99.90
17152;DHT22;8691;50.828;4.700;2023-02-16T11:51:04;13.30;99.90
17152;DHT22;8691;50.828;4.700;2023-02-16T11:53:33;13.40;99.90
17152;DHT22;8691;50.828;4.700;2023-02-16T11:56:21;13.40;99.90
17152;DHT22;8691;50.828;4.700;2023-02-16T11:58:44;13.40;99.90
17152;DHT22;8691;50.828;4.700;2023-02-16T12:01:30;13.00;99.90
17152;DHT22;8691;50.828;4.700;2023-02-16T12:07:03;13.10;99.90
17152;DHT22;8691;50.828;4.700;2023-02-16T12:10:27;12.80;99.90
17152;DHT22;8691;50.828;4.700;2023-02-16T12:12:10;12.80;99.90
17152;DHT22;8691;50.828;4.700;2023-02-16T12:20:21;12.90;99.90
17152;DHT22;8691;50.828;4.700;2023-02-16T12:22:55;13.10;99.90
17152;DHT22;8691;50.828;4.700;2023-02-16T12:25:35;13.10;99.90
17152;DHT22;8691;50.828;4.700;2023-02-16T12:30:43;12.90;99.90
17152;DHT22;8691;50.828;4.700;2023-02-16T12:35:59;13.00;99.90
17152;DHT22;8691;50.828;4.700;2023-02-16T12:44:02;13.10;99.90
17152;DHT22;8691;50.828;4.700;2023-02-16T12:46:29;13.20;99.90
17152;DHT22;8691;50.828;4.700;2023-02-16T12:48:55;13.40;99.90
17152;DHT22;8691;50.828;4.700;2023-02-16T12:51:19;13.30;99.90
17152;DHT22;8691;50.828;4.700;2023-02-16T12:53:51;13.40;99.90
17152;DHT22;8691;50.828;4.700;2023-02-16T12:56:25;13.30;99.90
17152;DHT22;8691;50.828;4.700;2023-02-16T12:58:53;13.40;99.90
17152;DHT22;8691;50.828;4.700;2023-02-16T13:01:22;13.40;99.90
17152;DHT22;8691;50.828;4.700;2023-02-16T13:03:57;13.60;99.90
17152;DHT22;8691;50.828;4.700;2023-02-16T13:06:33;13.60;99.90
17152;DHT22;8691;50.828;4.700;2023-02-16T13:14:55;13.40;99.90
17152;DHT22;8691;50.828;4.700;2023-02-16T13:17:23;13.30;99.90
17152;DHT22;8691;50.828;4.700;2023-02-16T13:19:45;13.30;99.90
17152;DHT22;8691;50.828;4.700;2023-02-16T13:22:24;13.30;99.90
17152;DHT22;8691;50.828;4.700;2023-02-16T13:35:46;13.50;99.90
17152;DHT22;8691;50.828;4.700;2023-02-16T13:43:32;13.70;99.90
17152;DHT22;8691;50.828;4.700;2023-02-16T13:45:59;13.70;99.90
17152;DHT22;8691;50.828;4.700;2023-02-16T13:51:14;13.90;99.90
17152;DHT22;8691;50.828;4.700;2023-02-16T13:53:40;13.90;99.90
17152;DHT22;8691;50.828;4.700;2023-02-16T13:58:41;13.80;99.90
17152;DHT22;8691;50.828;4.700;2023-02-16T14:01:34;13.80;99.90
17152;DHT22;8691;50.828;4.700;2023-02-16T14:04:00;13.70;99.90
17152;DHT22;8691;50.828;4.700;2023-02-16T14:06:28;13.70;99.90
17152;DHT22;8691;50.828;4.700;2023-02-16T14:14:37;13.60;99.90
17152;DHT22;8691;50.828;4.700;2023-02-16T14:27:55;13.70;99.90
17152;DHT22;8691;50.828;4.700;2023-02-16T14:30:33;13.70;99.90
17152;DHT22;8691;50.828;4.700;2023-02-16T14:33:04;13.60;99.90
17152;DHT22;8691;50.828;4.700;2023-02-16T14:35:35;13.70;99.90
17152;DHT22;8691;50.828;4.700;2023-02-16T14:38:00;13.80;99.90
17152;DHT22;8691;50.828;4.700;2023-02-16T14:43:11;14.10;99.90
17152;DHT22;8691;50.828;4.700;2023-02-16T14:45:53;14.10;99.90
17152;DHT22;8691;50.828;4.700;2023-02-16T14:57:01;14.00;99.90
17152;DHT22;8691;50.828;4.700;2023-02-16T14:59:37;13.90;99.90
17152;DHT22;8691;50.828;4.700;2023-02-16T15:02:22;13.90;99.90
17152;DHT22;8691;50.828;4.700;2023-02-16T15:04:30;13.80;99.90
17152;DHT22;8691;50.828;4.700;2023-02-16T15:06:56;13.80;99.90
17152;DHT22;8691;50.828;4.700;2023-02-16T15:09:27;13.60;99.90
17152;DHT22;8691;50.828;4.700;2023-02-16T15:11:53;13.60;99.90
17152;DHT22;8691;50.828;4.700;2023-02-16T15:14:44;13.60;99.90
17152;DHT22;8691;50.828;4.700;2023-02-16T15:17:12;13.50;99.90
17152;DHT22;8691;50.828;4.700;2023-02-16T15:19:36;13.40;99.90
17152;DHT22;8691;50.828;4.700;2023-02-16T15:24:39;13.20;99.90
17152;DHT22;8691;50.828;4.700;2023-02-16T15:27:06;13.10;99.90
17152;DHT22;8691;50.828;4.700;2023-02-16T15:29:33;13.10;99.90
17152;DHT22;8691;50.828;4.700;2023-02-16T15:32:00;13.10;99.90
17152;DHT22;8691;50.828;4.700;2023-02-16T15:34:32;13.00;99.90
17152;DHT22;8691;50.828;4.700;2023-02-16T15:36:57;13.10;99.90
17152;DHT22;8691;50.828;4.700;2023-02-16T15:39:30;13.00;99.90
17152;DHT22;8691;50.828;4.700;2023-02-16T15:41:53;13.00;99.90
17152;DHT22;8691;50.828;4.700;2023-02-16T15:44:33;12.80;99.90
17152;DHT22;8691;50.828;4.700;2023-02-16T15:47:06;12.80;99.90
17152;DHT22;8691;50.828;4.700;2023-02-16T15:49:31;12.70;99.90
17152;DHT22;8691;50.828;4.700;2023-02-16T15:51:58;12.60;99.90
17152;DHT22;8691;50.828;4.700;2023-02-16T15:54:26;12.60;99.90
17152;DHT22;8691;50.828;4.700;2023-02-16T15:57:03;12.50;99.90
17152;DHT22;8691;50.828;4.700;2023-02-16T15:59:51;12.50;99.90
17152;DHT22;8691;50.828;4.700;2023-02-16T16:04:54;12.40;99.90
17152;DHT22;8691;50.828;4.700;2023-02-16T16:07:41;12.40;99.90
17152;DHT22;8691;50.828;4.700;2023-02-16T16:09:47;12.40;99.90
17152;DHT22;8691;50.828;4.700;2023-02-16T16:12:15;12.30;99.90
17152;DHT22;8691;50.828;4.700;2023-02-16T16:14:50;12.40;99.90
17152;DHT22;8691;50.828;4.700;2023-02-16T16:17:17;12.10;99.90
17152;DHT22;8691;50.828;4.700;2023-02-16T16:19:43;12.10;99.90
17152;DHT22;8691;50.828;4.700;2023-02-16T16:22:30;11.90;99.90
17152;DHT22;8691;50.828;4.700;2023-02-16T16:24:55;11.70;99.90
17152;DHT22;8691;50.828;4.700;2023-02-16T16:27:29;11.60;99.90
17152;DHT22;8691;50.828;4.700;2023-02-16T16:30:07;11.50;99.90
17152;DHT22;8691;50.828;4.700;2023-02-16T16:32:22;11.50;99.90
17152;DHT22;8691;50.828;4.700;2023-02-16T16:34:48;11.40;99.90
17152;DHT22;8691;50.828;4.700;2023-02-16T16:37:27;11.40;99.90
17152;DHT22;8691;50.828;4.700;2023-02-16T16:45:35;11.30;99.90
17152;DHT22;8691;50.828;4.700;2023-02-16T16:48:00;11.20;99.90
17152;DHT22;8691;50.828;4.700;2023-02-16T16:50:34;11.20;99.90
17152;DHT22;8691;50.828;4.700;2023-02-16T16:53:00;11.20;99.90
17152;DHT22;8691;50.828;4.700;2023-02-16T16:55:28;11.20;99.90
17152;DHT22;8691;50.828;4.700;2023-02-16T16:57:54;11.20;99.90
17152;DHT22;8691;50.828;4.700;2023-02-16T17:00:21;11.00;99.90
17152;DHT22;8691;50.828;4.700;2023-02-16T17:02:47;11.00;99.90
17152;DHT22;8691;50.828;4.700;2023-02-16T17:05:14;10.80;99.90
17152;DHT22;8691;50.828;4.700;2023-02-16T17:07:41;10.60;99.90
17152;DHT22;8691;50.828;4.700;2023-02-16T17:10:08;10.60;99.90
17152;DHT22;8691;50.828;4.700;2023-02-16T17:12:34;10.60;99.90
17152;DHT22;8691;50.828;4.700;2023-02-16T17:15:02;10.50;99.90
17152;DHT22;8691;50.828;4.700;2023-02-16T17:17:29;10.40;99.90
17152;DHT22;8691;50.828;4.700;2023-02-16T17:19:55;10.40;99.90
17152;DHT22;8691;50.828;4.700;2023-02-16T17:22:22;10.40;99.90
17152;DHT22;8691;50.828;4.700;2023-02-16T17:24:48;10.40;99.90
17152;DHT22;8691;50.828;4.700;2023-02-16T17:27:15;10.40;99.90
17152;DHT22;8691;50.828;4.700;2023-02-16T17:29:43;10.40;99.90
17152;DHT22;8691;50.828;4.700;2023-02-16T17:32:10;10.40;99.90
17152;DHT22;8691;50.828;4.700;2023-02-16T17:34:37;10.40;99.90
17152;DHT22;8691;50.828;4.700;2023-02-16T17:37:04;10.40;99.90
17152;DHT22;8691;50.828;4.700;2023-02-16T17:39:33;10.40;99.90
17152;DHT22;8691;50.828;4.700;2023-02-16T17:42:00;10.50;99.90
17152;DHT22;8691;50.828;4.700;2023-02-16T17:44:27;10.40;99.90
17152;DHT22;8691;50.828;4.700;2023-02-16T17:46:54;10.40;99.90
17152;DHT22;8691;50.828;4.700;2023-02-16T17:49:20;10.40;99.90
17152;DHT22;8691;50.828;4.700;2023-02-16T17:51:48;10.40;99.90
17152;DHT22;8691;50.828;4.700;2023-02-16T17:54:14;10.40;99.90
17152;DHT22;8691;50.828;4.700;2023-02-16T17:56:41;10.40;99.90
17152;DHT22;8691;50.828;4.700;2023-02-16T17:59:08;10.40;99.90
17152;DHT22;8691;50.828;4.700;2023-02-16T18:01:35;10.30;99.90
17152;DHT22;8691;50.828;4.700;2023-02-16T18:04:01;10.40;99.90
17152;DHT22;8691;50.828;4.700;2023-02-16T18:06:28;10.40;99.90
17152;DHT22;8691;50.828;4.700;2023-02-16T18:08:55;10.50;99.90
17152;DHT22;8691;50.828;4.700;2023-02-16T18:11:22;10.50;99.90
17152;DHT22;8691;50.828;4.700;2023-02-16T18:13:49;10.50;99.90
17152;DHT22;8691;50.828;4.700;2023-02-16T18:16:16;10.50;99.90
17152;DHT22;8691;50.828;4.700;2023-02-16T18:18:46;10.60;99.90